Time;durP1;ratioP1;P1;durP2;ratioP2;P2;SDS_P1;SDS_P2;PMS_P1;PMS_P2;Temp;Humidity;BMP_temperature;BMP_pressure;BME280_temperature;BME280_humidity;BME280_pressure;Samples;Min_cycle;Max_cycle;Signal;HPM_P1;HPM_P2
2023/09/21 00:00:50;;;;;;;9.18;1.90;;;18.10;99.90;;;;;;4951669;28;20059;-70
2023/09/21 00:03:16;;;;;;;11.98;2.25;;;18.10;99.90;;;;;;4906534;28;42203;-70
2023/09/21 00:05:46;;;;;;;6.82;1.90;;;18.20;99.90;;;;;;4941941;28;20056;-69
2023/09/21 00:08:12;;;;;;;10.40;2.30;;;18.10;99.90;;;;;;4895336;28;250779;-70
2023/09/21 00:10:41;;;;;;;11.05;2.33;;;18.20;99.90;;;;;;4942344;28;20494;-70
2023/09/21 00:13:07;;;;;;;8.93;2.10;;;18.30;99.90;;;;;;4905437;28;20422;-71
2023/09/21 00:15:34;;;;;;;9.50;2.33;;;18.30;99.90;;;;;;4926215;28;20059;-70
2023/09/21 00:18:00;;;;;;;8.33;2.37;;;18.30;99.90;;;;;;4904145;28;196819;-71
2023/09/21 00:20:42;;;;;;;12.07;1.98;;;18.30;99.90;;;;;;4947925;28;20059;-70
2023/09/21 00:23:09;;;;;;;8.85;2.00;;;18.30;99.90;;;;;;4900966;28;57280;-70
2023/09/21 00:25:38;;;;;;;8.85;1.92;;;18.20;99.90;;;;;;4935512;28;20051;-70
2023/09/21 00:28:11;;;;;;;8.25;2.30;;;18.30;99.90;;;;;;4907205;28;41542;-70
2023/09/21 00:30:38;;;;;;;9.32;2.22;;;18.30;99.90;;;;;;4951510;28;20074;-70
2023/09/21 00:33:07;;;;;;;8.05;1.92;;;18.30;99.90;;;;;;4910038;28;20050;-70
2023/09/21 00:35:39;;;;;;;8.23;2.17;;;18.30;99.90;;;;;;4941501;28;20509;-70
2023/09/21 00:38:10;;;;;;;8.85;2.03;;;18.20;99.90;;;;;;4915276;28;20429;-70
2023/09/21 00:40:40;;;;;;;9.63;2.10;;;18.20;99.90;;;;;;4954107;28;20066;-70
2023/09/21 00:43:07;;;;;;;8.20;2.13;;;18.20;99.90;;;;;;4904881;28;87190;-71
2023/09/21 00:45:37;;;;;;;8.00;2.20;;;18.20;99.90;;;;;;4943792;28;20059;-71
2023/09/21 00:48:08;;;;;;;9.82;2.22;;;18.20;99.90;;;;;;4904298;28;59055;-71
2023/09/21 00:50:35;;;;;;;10.18;2.33;;;18.10;99.90;;;;;;4948729;28;20062;-71
2023/09/21 00:53:05;;;;;;;7.90;2.15;;;18.10;99.90;;;;;;4886691;28;241694;-70
2023/09/21 00:55:34;;;;;;;9.30;2.17;;;18.10;99.90;;;;;;4928589;28;20067;-70
2023/09/21 00:58:02;;;;;;;12.05;2.50;;;18.10;99.90;;;;;;4906335;28;72359;-70
2023/09/21 01:00:30;;;;;;;8.98;2.40;;;18.00;99.90;;;;;;4943691;28;20054;-70
2023/09/21 01:03:07;;;;;;;9.07;2.03;;;18.00;99.90;;;;;;4908569;28;20056;-69
2023/09/21 01:05:44;;;;;;;7.75;2.38;;;18.10;99.90;;;;;;4946538;28;20051;-70
2023/09/21 01:08:18;;;;;;;8.23;2.50;;;18.20;99.90;;;;;;4912630;28;20051;-70
2023/09/21 01:10:49;;;;;;;8.57;2.33;;;18.20;99.90;;;;;;4956314;28;20055;-70
2023/09/21 01:13:19;;;;;;;10.50;2.20;;;18.10;99.90;;;;;;4907714;28;20716;-70
2023/09/21 01:16:02;;;;;;;9.15;2.33;;;18.20;99.90;;;;;;4945071;28;20059;-69
2023/09/21 01:18:28;;;;;;;10.50;2.67;;;18.20;99.90;;;;;;4901185;28;219132;-71
2023/09/21 01:20:55;;;;;;;7.50;2.50;;;18.20;99.90;;;;;;4942334;28;20054;-69
2023/09/21 01:23:35;;;;;;;8.73;2.20;;;18.30;99.90;;;;;;4909425;28;106743;-70
2023/09/21 01:26:01;;;;;;;8.85;2.30;;;18.30;99.90;;;;;;4956271;28;20550;-71
2023/09/21 01:28:29;;;;;;;9.15;2.38;;;18.30;99.90;;;;;;4907948;28;148759;-71
2023/09/21 01:30:58;;;;;;;9.77;2.20;;;18.30;99.90;;;;;;4954570;28;20055;-71
2023/09/21 01:33:24;;;;;;;7.93;2.00;;;18.30;99.90;;;;;;4914167;28;229639;-70
2023/09/21 01:35:51;;;;;;;10.23;2.70;;;18.20;99.90;;;;;;4944281;28;20063;-70
2023/09/21 01:38:17;;;;;;;10.98;2.50;;;18.30;99.90;;;;;;4909115;28;102061;-70
2023/09/21 01:40:43;;;;;;;9.02;2.40;;;18.30;99.90;;;;;;4957314;28;20047;-70
2023/09/21 01:43:15;;;;;;;18.80;2.30;;;18.30;99.90;;;;;;4907666;28;62046;-70
2023/09/21 01:45:42;;;;;;;9.02;2.03;;;18.40;99.90;;;;;;4954251;28;20062;-70
2023/09/21 01:48:10;;;;;;;7.53;2.30;;;18.50;99.90;;;;;;4902122;28;95362;-71
2023/09/21 01:50:41;;;;;;;12.40;2.63;;;18.50;99.90;;;;;;4944276;28;20063;-70
2023/09/21 01:53:09;;;;;;;11.38;2.40;;;18.50;99.90;;;;;;4891207;28;136180;-71
2023/09/21 01:55:36;;;;;;;8.10;2.22;;;18.50;99.90;;;;;;4944859;28;20059;-70
2023/09/21 01:58:04;;;;;;;8.05;2.17;;;18.50;99.90;;;;;;4904461;28;185961;-70
2023/09/21 02:00:34;;;;;;;8.60;2.30;;;18.60;99.90;;;;;;4943551;28;20058;-70
2023/09/21 02:03:03;;;;;;;8.90;2.17;;;18.60;99.90;;;;;;4906831;28;20707;-70
2023/09/21 02:05:29;;;;;;;10.02;2.10;;;18.50;99.90;;;;;;4944684;28;20047;-70
2023/09/21 02:07:55;;;;;;;10.10;2.35;;;18.50;99.90;;;;;;4908677;28;43490;-70
2023/09/21 02:10:22;;;;;;;11.18;2.00;;;18.40;99.90;;;;;;4955828;28;20055;-71
2023/09/21 02:12:55;;;;;;;9.82;2.28;;;18.40;99.90;;;;;;4906810;28;20058;-70
2023/09/21 02:15:22;;;;;;;7.78;2.00;;;18.40;99.90;;;;;;4953510;28;20054;-70
2023/09/21 02:17:49;;;;;;;7.57;1.75;;;18.40;99.90;;;;;;4911326;28;20047;-70
2023/09/21 02:20:16;;;;;;;8.98;2.13;;;18.40;99.90;;;;;;4950394;28;20047;-70
2023/09/21 02:22:46;;;;;;;8.05;2.15;;;18.40;99.90;;;;;;4903860;28;20059;-69
2023/09/21 02:25:13;;;;;;;7.18;1.98;;;18.30;99.90;;;;;;4941592;28;20056;-70
2023/09/21 02:27:41;;;;;;;8.95;2.20;;;18.40;99.90;;;;;;4906944;28;20058;-69
2023/09/21 02:30:13;;;;;;;8.18;2.20;;;18.40;99.90;;;;;;4959892;28;20509;-69
2023/09/21 02:32:44;;;;;;;8.82;2.22;;;18.30;99.90;;;;;;4904840;28;20052;-70
2023/09/21 02:35:13;;;;;;;8.37;2.40;;;18.30;99.90;;;;;;4944375;28;20055;-70
2023/09/21 02:37:44;;;;;;;8.13;2.30;;;18.30;99.90;;;;;;4904428;28;20306;-70
2023/09/21 02:40:14;;;;;;;12.80;2.53;;;18.30;99.90;;;;;;4926385;28;20047;-71
2023/09/21 02:42:45;;;;;;;6.82;1.98;;;18.30;99.90;;;;;;4905287;28;20486;-70
2023/09/21 02:45:12;;;;;;;8.30;2.05;;;18.30;99.90;;;;;;4928874;28;20064;-70
2023/09/21 02:47:39;;;;;;;7.93;2.30;;;18.30;99.90;;;;;;4915153;28;20055;-70
2023/09/21 02:50:15;;;;;;;9.40;2.20;;;18.30;99.90;;;;;;4924733;28;20058;-71
2023/09/21 02:52:51;;;;;;;9.18;2.30;;;18.30;99.90;;;;;;4894617;28;104389;-69
2023/09/21 02:55:18;;;;;;;8.52;2.30;;;18.30;99.90;;;;;;4955151;28;20137;-70
2023/09/21 02:57:47;;;;;;;9.50;2.33;;;18.30;99.90;;;;;;4922196;28;20066;-70
2023/09/21 03:00:49;;;;;;;8.57;2.28;;;18.30;99.90;;;;;;4959296;28;20375;-70
2023/09/21 03:03:07;;;;;;;7.60;2.20;;;18.30;99.90;;;;;;4905876;28;20058;-70
2023/09/21 03:05:34;;;;;;;8.60;2.05;;;18.30;99.90;;;;;;4930674;29;20493;-70
2023/09/21 03:08:05;;;;;;;9.60;2.40;;;18.30;99.90;;;;;;4907412;28;20059;-70
2023/09/21 03:10:33;;;;;;;8.32;2.30;;;18.30;99.90;;;;;;4943098;28;20055;-70
2023/09/21 03:12:59;;;;;;;7.82;2.10;;;18.30;99.90;;;;;;4905255;28;20107;-70
2023/09/21 03:15:25;;;;;;;10.43;2.20;;;18.30;99.90;;;;;;4939236;28;20062;-70
2023/09/21 03:17:55;;;;;;;8.88;2.33;;;18.30;99.90;;;;;;4902589;28;20051;-70
2023/09/21 03:20:29;;;;;;;8.45;2.53;;;18.20;99.90;;;;;;4928446;28;20058;-69
2023/09/21 03:22:58;;;;;;;9.57;2.08;;;18.20;99.90;;;;;;4904698;28;20056;-71
2023/09/21 03:25:32;;;;;;;8.48;2.03;;;18.20;99.90;;;;;;4945569;28;20051;-69
2023/09/21 03:28:00;;;;;;;8.48;2.20;;;18.20;99.90;;;;;;4906358;28;20067;-68
2023/09/21 03:30:27;;;;;;;8.32;2.30;;;18.10;99.90;;;;;;4958830;28;20067;-69
2023/09/21 03:32:53;;;;;;;10.15;2.10;;;18.10;99.90;;;;;;4904238;28;20059;-69
2023/09/21 03:35:20;;;;;;;9.43;2.28;;;18.10;99.90;;;;;;4931753;29;20051;-70
2023/09/21 03:37:50;;;;;;;7.07;1.88;;;18.10;99.90;;;;;;4904823;28;20047;-69
2023/09/21 03:40:18;;;;;;;9.88;2.30;;;18.10;99.90;;;;;;4932612;29;20058;-70
2023/09/21 03:42:44;;;;;;;8.75;2.17;;;18.10;99.90;;;;;;4905683;28;20504;-70
2023/09/21 03:45:15;;;;;;;7.40;2.30;;;18.10;99.90;;;;;;4945094;28;20055;-69
2023/09/21 03:47:42;;;;;;;8.20;2.10;;;18.10;99.90;;;;;;4905080;28;20062;-68
2023/09/21 03:50:12;;;;;;;9.13;2.10;;;18.10;99.90;;;;;;4955567;28;20047;-71
2023/09/21 03:52:39;;;;;;;8.48;2.00;;;18.10;99.90;;;;;;4934321;28;20059;-69
2023/09/21 03:55:08;;;;;;;8.68;2.00;;;18.10;99.90;;;;;;4944871;28;152915;-70
2023/09/21 03:57:34;;;;;;;7.15;1.88;;;18.10;99.90;;;;;;4946227;28;20058;-69
2023/09/21 04:00:05;;;;;;;10.20;2.22;;;18.10;99.90;;;;;;4942635;28;20420;-70
2023/09/21 04:02:31;;;;;;;;;;;18.20;99.90;;;;;;4958175;28;20055;-70
2023/09/21 04:04:59;;;;;;;7.35;2.00;;;18.20;99.90;;;;;;4931115;28;19949;-70
2023/09/21 04:07:25;;;;;;;8.85;2.20;;;18.10;99.90;;;;;;4948324;28;20426;-71
2023/09/21 04:09:51;;;;;;;9.30;2.15;;;18.10;99.90;;;;;;4923530;28;20055;-70
2023/09/21 04:12:17;;;;;;;8.38;2.10;;;18.10;99.90;;;;;;4949478;28;20051;-70
2023/09/21 04:14:45;;;;;;;9.38;2.35;;;18.10;99.90;;;;;;4921893;28;20422;-71
2023/09/21 04:17:11;;;;;;;7.90;2.30;;;18.10;99.90;;;;;;4944410;28;20056;-70
2023/09/21 04:19:39;;;;;;;9.85;2.22;;;18.10;99.90;;;;;;4924375;28;20078;-71
2023/09/21 04:22:05;;;;;;;9.40;2.65;;;18.00;99.90;;;;;;4946872;28;20054;-71
2023/09/21 04:24:31;;;;;;;7.65;1.90;;;18.00;99.90;;;;;;4925373;28;20134;-70
2023/09/21 04:26:58;;;;;;;9.52;2.10;;;18.00;99.90;;;;;;4960787;28;20063;-70
2023/09/21 04:29:24;;;;;;;11.05;2.15;;;18.00;99.90;;;;;;4920636;28;21607;-70
2023/09/21 04:31:51;;;;;;;8.15;2.22;;;18.00;99.90;;;;;;4947908;28;20138;-70
2023/09/21 04:34:17;;;;;;;9.68;2.15;;;17.90;99.90;;;;;;4920538;28;20062;-70
2023/09/21 04:36:43;;;;;;;10.13;2.17;;;17.90;99.90;;;;;;4948620;28;20051;-69
2023/09/21 04:39:14;;;;;;;7.90;2.17;;;17.90;99.90;;;;;;4908384;28;20482;-71
2023/09/21 04:41:41;;;;;;;8.15;2.33;;;17.90;99.90;;;;;;4946278;28;20059;-69
2023/09/21 04:44:08;;;;;;;7.85;2.22;;;17.90;99.90;;;;;;4917187;28;20046;-70
2023/09/21 04:46:36;;;;;;;8.70;2.10;;;17.80;99.90;;;;;;4949480;28;20059;-71
2023/09/21 04:49:03;;;;;;;7.55;2.08;;;17.80;99.90;;;;;;4924591;28;20216;-70
2023/09/21 04:51:29;;;;;;;10.20;2.40;;;17.80;99.90;;;;;;4950740;28;20055;-70
2023/09/21 04:53:55;;;;;;;8.20;2.40;;;17.80;99.90;;;;;;4897875;28;59959;-69
2023/09/21 04:56:21;;;;;;;8.10;2.20;;;17.90;99.90;;;;;;4942291;28;20051;-70
2023/09/21 04:58:48;;;;;;;8.40;2.13;;;17.80;99.90;;;;;;4916098;28;20058;-70
2023/09/21 05:01:15;;;;;;;10.48;2.30;;;17.80;99.90;;;;;;4952865;28;20055;-70
2023/09/21 05:03:41;;;;;;;8.07;2.28;;;17.70;99.90;;;;;;4906373;28;20066;-70
2023/09/21 05:06:07;;;;;;;8.63;1.80;;;17.70;99.90;;;;;;4944393;28;20062;-71
2023/09/21 05:08:36;;;;;;;8.25;2.03;;;17.70;99.90;;;;;;4913261;28;20061;-69
2023/09/21 05:11:05;;;;;;;10.10;1.98;;;17.70;99.90;;;;;;4949870;28;20059;-70
2023/09/21 05:13:31;;;;;;;10.38;2.20;;;17.70;99.90;;;;;;4900062;28;20055;-70
2023/09/21 05:15:58;;;;;;;6.85;2.15;;;17.70;99.90;;;;;;4938798;28;20066;-70
2023/09/21 05:18:24;;;;;;;8.32;2.38;;;17.70;99.90;;;;;;4906108;28;20063;-69
2023/09/21 05:20:52;;;;;;;8.10;2.15;;;17.70;99.90;;;;;;4942398;28;20059;-70
2023/09/21 05:23:18;;;;;;;8.38;2.10;;;17.80;99.90;;;;;;4903463;28;20062;-69
2023/09/21 05:25:45;;;;;;;9.27;2.15;;;17.80;99.90;;;;;;4944384;28;20059;-70
2023/09/21 05:28:11;;;;;;;9.35;2.40;;;17.80;99.90;;;;;;4910170;28;20106;-70
2023/09/21 05:30:38;;;;;;;9.57;2.22;;;17.90;99.90;;;;;;4950583;28;20194;-70
2023/09/21 05:33:05;;;;;;;8.18;2.38;;;17.90;99.90;;;;;;4905392;28;20047;-70
2023/09/21 05:35:32;;;;;;;9.07;2.28;;;17.90;99.90;;;;;;4956522;28;20054;-70
2023/09/21 05:37:58;;;;;;;8.05;2.00;;;18.00;99.90;;;;;;4909731;28;20051;-71
2023/09/21 05:40:24;;;;;;;9.27;2.15;;;18.10;99.90;;;;;;4953538;28;20409;-70
2023/09/21 05:42:50;;;;;;;7.30;2.20;;;18.10;99.90;;;;;;4908349;28;20063;-70
2023/09/21 05:45:16;;;;;;;8.60;2.20;;;18.10;99.90;;;;;;4940558;28;20043;-70
2023/09/21 05:47:42;;;;;;;12.48;2.40;;;18.10;99.90;;;;;;4904682;28;20051;-70
2023/09/21 05:50:09;;;;;;;9.43;2.45;;;18.10;99.90;;;;;;4943913;28;20051;-69
2023/09/21 05:52:35;;;;;;;9.20;2.10;;;18.20;99.90;;;;;;4928741;28;20059;-69
2023/09/21 05:55:02;;;;;;;10.32;2.47;;;18.20;99.90;;;;;;4908987;28;51869;-69
2023/09/21 05:57:29;;;;;;;10.23;2.60;;;18.30;99.90;;;;;;4941633;28;20421;-69
2023/09/21 05:59:55;;;;;;;12.05;2.17;;;18.30;99.90;;;;;;4918106;28;20070;-69
2023/09/21 06:02:21;;;;;;;9.25;2.40;;;18.30;99.90;;;;;;4945830;28;20066;-68
2023/09/21 06:04:48;;;;;;;8.77;2.13;;;18.30;99.90;;;;;;4901538;28;20592;-70
2023/09/21 06:07:14;;;;;;;7.78;2.35;;;18.30;99.90;;;;;;4947219;28;20066;-70
2023/09/21 06:09:43;;;;;;;10.77;2.33;;;18.30;99.90;;;;;;4907527;28;20067;-70
2023/09/21 06:12:11;;;;;;;8.30;2.40;;;18.30;99.90;;;;;;4943665;28;20063;-71
2023/09/21 06:14:37;;;;;;;7.68;2.38;;;18.30;99.90;;;;;;4917194;28;20051;-72
2023/09/21 06:17:06;;;;;;;10.05;2.30;;;18.30;99.90;;;;;;4944046;28;20059;-70
2023/09/21 06:19:37;;;;;;;9.57;2.30;;;18.30;99.90;;;;;;4920790;28;20046;-69
2023/09/21 06:22:04;;;;;;;8.18;2.25;;;18.30;99.90;;;;;;4944028;28;20059;-70
2023/09/21 06:24:31;;;;;;;8.82;2.25;;;18.30;99.90;;;;;;4901577;28;20650;-71
2023/09/21 06:26:57;;;;;;;7.10;2.10;;;18.30;99.90;;;;;;4942908;28;20062;-70
2023/09/21 06:29:23;;;;;;;8.15;2.20;;;18.20;99.90;;;;;;4903587;28;20051;-70
2023/09/21 06:31:54;;;;;;;7.85;2.15;;;18.30;99.90;;;;;;4944835;28;20047;-70
2023/09/21 06:34:24;;;;;;;9.85;2.58;;;18.30;99.90;;;;;;4905145;28;20058;-70
2023/09/21 06:36:52;;;;;;;8.38;2.35;;;18.30;99.90;;;;;;4945474;28;20047;-70
2023/09/21 06:39:20;;;;;;;8.77;2.17;;;18.20;99.90;;;;;;4907572;28;20069;-70
2023/09/21 06:41:47;;;;;;;9.95;2.47;;;18.20;99.90;;;;;;4946509;28;20528;-70
2023/09/21 06:44:15;;;;;;;8.98;2.40;;;18.30;99.90;;;;;;4909476;28;20074;-70
2023/09/21 06:46:41;;;;;;;8.05;2.15;;;18.30;99.90;;;;;;4946134;28;20035;-70
2023/09/21 06:49:07;;;;;;;7.28;2.08;;;18.30;99.90;;;;;;4905383;28;20050;-69
2023/09/21 06:51:33;;;;;;;9.57;2.53;;;18.30;99.90;;;;;;4948938;28;20051;-70
2023/09/21 06:54:00;;;;;;;13.32;2.75;;;18.20;99.90;;;;;;4896328;28;35941;-69
2023/09/21 06:56:31;;;;;;;12.80;2.70;;;18.30;99.90;;;;;;4949022;28;20094;-70
2023/09/21 06:58:57;;;;;;;11.23;2.60;;;18.20;99.90;;;;;;4916976;28;20055;-69
2023/09/21 07:01:26;;;;;;;10.70;2.40;;;18.20;99.90;;;;;;4960092;28;20062;-70
2023/09/21 07:03:52;;;;;;;13.25;2.65;;;18.10;99.90;;;;;;4916506;28;20059;-70
2023/09/21 07:06:19;;;;;;;69.05;7.25;;;18.00;99.90;;;;;;4942780;28;20047;-71
2023/09/21 07:08:47;;;;;;;15.77;3.53;;;17.90;99.90;;;;;;4916973;28;20094;-69
2023/09/21 07:11:15;;;;;;;9.70;2.67;;;17.90;99.90;;;;;;4945511;28;20054;-70
2023/09/21 07:13:42;;;;;;;10.65;2.55;;;17.80;99.90;;;;;;4910647;28;20051;-70
2023/09/21 07:16:08;;;;;;;22.77;3.28;;;17.80;99.90;;;;;;4951173;28;20089;-69
2023/09/21 07:18:36;;;;;;;19.95;3.88;;;17.80;99.90;;;;;;4913075;28;20046;-70
2023/09/21 07:21:03;;;;;;;8.95;2.45;;;17.80;99.90;;;;;;4953176;28;20082;-70
2023/09/21 07:23:29;;;;;;;8.77;2.47;;;17.80;99.90;;;;;;4910319;28;20097;-69
2023/09/21 07:25:57;;;;;;;11.75;3.10;;;17.70;99.90;;;;;;4950839;28;20054;-70
2023/09/21 07:28:23;;;;;;;20.80;3.70;;;17.80;99.90;;;;;;4913902;28;20421;-69
2023/09/21 07:30:53;;;;;;;12.63;2.75;;;17.80;99.90;;;;;;4955296;28;20083;-69
2023/09/21 07:33:23;;;;;;;11.30;2.92;;;17.80;99.90;;;;;;4915662;28;20066;-69
2023/09/21 07:35:50;;;;;;;8.35;2.65;;;17.80;99.90;;;;;;4956064;28;20063;-69
2023/09/21 07:38:19;;;;;;;9.45;2.85;;;17.80;99.90;;;;;;4911764;28;20054;-70
2023/09/21 07:40:45;;;;;;;18.52;2.80;;;17.90;99.90;;;;;;4946020;28;20070;-69
2023/09/21 07:43:12;;;;;;;9.52;3.00;;;17.80;99.90;;;;;;4907526;28;20043;-70
2023/09/21 07:45:38;;;;;;;11.20;2.80;;;17.80;99.90;;;;;;4944061;28;20054;-70
2023/09/21 07:48:05;;;;;;;10.98;3.08;;;17.80;99.90;;;;;;4913343;28;20959;-70
2023/09/21 07:50:34;;;;;;;9.02;2.63;;;17.80;99.90;;;;;;4959930;28;20051;-70
2023/09/21 07:53:03;;;;;;;16.92;3.40;;;17.80;99.90;;;;;;4894225;28;190879;-70
2023/09/21 07:55:30;;;;;;;12.23;3.53;;;17.70;99.90;;;;;;4934126;29;20055;-70
2023/09/21 07:57:56;;;;;;;14.93;3.80;;;17.70;99.90;;;;;;4927754;28;20063;-71
2023/09/21 08:00:22;;;;;;;14.55;3.20;;;17.70;99.90;;;;;;4959288;28;20058;-71
2023/09/21 08:02:49;;;;;;;11.00;3.00;;;17.70;99.90;;;;;;4894267;28;20064;-71
2023/09/21 08:05:15;;;;;;;10.57;2.85;;;17.60;99.90;;;;;;4956051;28;20055;-71
2023/09/21 08:07:41;;;;;;;8.93;2.72;;;17.60;99.90;;;;;;4910608;28;20059;-71
2023/09/21 08:10:10;;;;;;;9.25;2.88;;;17.60;99.90;;;;;;4964250;28;22036;-71
2023/09/21 08:12:38;;;;;;;8.65;2.58;;;17.60;99.90;;;;;;4924053;28;20067;-71
2023/09/21 08:15:11;;;;;;;8.73;3.00;;;17.50;99.90;;;;;;4922981;28;20579;-71
2023/09/21 08:17:38;;;;;;;8.45;2.63;;;17.50;99.90;;;;;;4919795;28;20067;-71
2023/09/21 08:20:09;;;;;;;8.27;2.85;;;17.50;99.90;;;;;;4938260;28;20055;-71
2023/09/21 08:22:36;;;;;;;11.52;2.70;;;17.50;99.90;;;;;;4944363;28;20526;-72
2023/09/21 08:25:04;;;;;;;9.45;3.03;;;17.50;99.90;;;;;;4926690;28;20051;-70
2023/09/21 08:27:31;;;;;;;11.52;3.10;;;17.40;99.90;;;;;;4946666;28;20059;-71
2023/09/21 08:29:57;;;;;;;11.02;3.65;;;17.40;99.90;;;;;;4903727;28;20055;-71
2023/09/21 08:32:25;;;;;;;8.60;2.90;;;17.40;99.90;;;;;;4949622;28;20532;-71
2023/09/21 08:34:52;;;;;;;8.77;3.10;;;17.40;99.90;;;;;;4905650;28;20145;-72
2023/09/21 08:37:18;;;;;;;9.88;3.05;;;17.40;99.90;;;;;;4947946;28;20055;-71
2023/09/21 08:39:45;;;;;;;8.57;3.20;;;17.40;99.90;;;;;;4915990;28;20518;-70
2023/09/21 08:42:11;;;;;;;10.30;3.15;;;17.40;99.90;;;;;;4948761;28;20425;-72
2023/09/21 08:44:43;;;;;;;12.48;3.40;;;17.40;99.90;;;;;;4918284;28;20498;-72
2023/09/21 08:47:15;;;;;;;10.35;3.10;;;17.40;99.90;;;;;;4951407;28;20059;-71
2023/09/21 08:49:45;;;;;;;9.75;3.00;;;17.40;99.90;;;;;;4911077;28;20051;-71
2023/09/21 08:52:15;;;;;;;11.68;3.05;;;17.30;99.90;;;;;;4943903;28;20062;-71
2023/09/21 08:54:42;;;;;;;9.27;3.03;;;17.30;99.90;;;;;;4910942;28;104869;-72
2023/09/21 08:57:11;;;;;;;9.55;3.13;;;17.20;99.90;;;;;;4950540;28;20055;-71
2023/09/21 08:59:41;;;;;;;15.00;3.65;;;17.20;99.90;;;;;;4906175;28;20566;-71
2023/09/21 09:02:11;;;;;;;20.55;4.07;;;17.20;99.90;;;;;;4949589;28;20051;-71
2023/09/21 09:04:38;;;;;;;12.70;3.85;;;17.20;99.90;;;;;;4920893;28;20051;-72
2023/09/21 09:07:04;;;;;;;14.57;4.18;;;17.20;99.90;;;;;;4948940;28;20055;-71
2023/09/21 09:09:30;;;;;;;10.05;3.50;;;17.10;99.90;;;;;;4910949;28;20058;-71
2023/09/21 09:11:57;;;;;;;11.25;3.53;;;17.10;99.90;;;;;;4962766;28;20505;-71
2023/09/21 09:14:23;;;;;;;9.60;3.97;;;17.10;99.90;;;;;;4910676;28;20043;-72
2023/09/21 09:16:51;;;;;;;10.77;4.10;;;17.10;99.90;;;;;;4951381;28;20387;-72
2023/09/21 09:19:18;;;;;;;11.52;3.72;;;17.00;99.90;;;;;;4917637;28;20073;-71
2023/09/21 09:21:44;;;;;;;56.50;7.20;;;17.00;99.90;;;;;;4950861;28;20062;-71
2023/09/21 09:24:13;;;;;;;17.60;4.30;;;17.00;99.90;;;;;;4909557;28;20051;-73
2023/09/21 09:26:41;;;;;;;13.30;4.40;;;17.00;99.90;;;;;;4944565;28;20062;-72
2023/09/21 09:29:09;;;;;;;13.13;3.78;;;17.00;99.90;;;;;;4910670;28;21020;-71
2023/09/21 09:31:40;;;;;;;9.80;2.90;;;17.00;99.90;;;;;;4951838;28;20063;-73
2023/09/21 09:34:06;;;;;;;6.50;1.88;;;16.90;99.90;;;;;;4908919;28;20054;-73
2023/09/21 09:36:35;;;;;;;5.90;1.33;;;16.70;99.90;;;;;;4953371;28;20062;-72
2023/09/21 09:39:01;;;;;;;7.28;1.30;;;16.30;99.90;;;;;;4920229;28;20062;-72
2023/09/21 09:41:28;;;;;;;6.13;1.20;;;16.20;99.90;;;;;;4946360;28;20070;-71
2023/09/21 09:43:58;;;;;;;6.50;1.15;;;16.10;99.90;;;;;;4907082;28;20055;-72
2023/09/21 09:46:26;;;;;;;5.85;1.20;;;16.00;99.90;;;;;;4944633;28;20551;-72
2023/09/21 09:48:58;;;;;;;7.10;1.40;;;16.00;99.90;;;;;;4911994;28;20062;-72
2023/09/21 09:51:46;;;;;;;5.25;1.20;;;15.90;99.90;;;;;;4951275;28;20054;-72
2023/09/21 09:54:13;;;;;;;7.30;1.58;;;15.90;99.90;;;;;;4900230;28;21304;-72
2023/09/21 09:56:44;;;;;;;6.93;1.35;;;15.80;99.90;;;;;;4946811;28;20134;-72
2023/09/21 09:59:12;;;;;;;6.85;1.20;;;15.80;99.90;;;;;;4918812;28;20568;-73
2023/09/21 10:01:41;;;;;;;5.05;1.00;;;15.80;99.90;;;;;;4948173;28;20066;-74
2023/09/21 10:04:07;;;;;;;6.45;1.33;;;15.70;99.90;;;;;;4893808;28;20058;-73
2023/09/21 10:06:35;;;;;;;6.80;1.45;;;15.70;99.90;;;;;;4946985;28;20043;-73
2023/09/21 10:09:10;;;;;;;5.05;1.30;;;15.80;99.90;;;;;;4910926;28;20593;-72
2023/09/21 10:11:53;;;;;;;6.03;1.50;;;15.80;99.90;;;;;;4946237;28;20055;-73
2023/09/21 10:14:19;;;;;;;6.50;1.60;;;15.70;99.90;;;;;;4905954;28;20543;-73
2023/09/21 10:16:56;;;;;;;5.35;1.20;;;15.70;99.90;;;;;;4938837;28;20047;-71
2023/09/21 10:19:29;;;;;;;4.97;1.25;;;15.80;99.90;;;;;;4913728;28;20051;-73
2023/09/21 10:22:03;;;;;;;4.93;1.20;;;15.80;99.90;;;;;;4947706;28;20055;-73
2023/09/21 10:24:30;;;;;;;3.97;1.00;;;15.80;99.90;;;;;;4921226;28;20612;-73
2023/09/21 10:27:01;;;;;;;5.82;1.20;;;15.80;99.90;;;;;;4950101;28;20055;-72
2023/09/21 10:29:32;;;;;;;5.85;1.00;;;15.90;99.90;;;;;;4921290;28;20051;-73
2023/09/21 10:32:06;;;;;;;4.90;1.10;;;15.90;99.90;;;;;;4947347;28;20180;-73
2023/09/21 10:34:32;;;;;;;3.95;0.90;;;16.00;99.90;;;;;;4893441;28;20051;-73
2023/09/21 10:37:06;;;;;;;4.97;1.00;;;15.90;99.90;;;;;;4946828;28;20051;-72
2023/09/21 10:39:33;;;;;;;3.13;0.90;;;15.90;99.90;;;;;;4918337;28;20525;-72
2023/09/21 10:42:05;;;;;;;5.93;1.35;;;15.90;99.90;;;;;;4961500;28;20047;-73
2023/09/21 10:45:00;;;;;;;5.05;1.20;;;16.00;99.90;;;;;;4921844;28;20047;-74
2023/09/21 10:47:28;;;;;;;6.78;1.48;;;16.00;99.90;;;;;;4963732;28;20043;-74
2023/09/21 10:50:06;;;;;;;4.82;1.30;;;15.90;99.90;;;;;;4917475;28;20130;-72
2023/09/21 10:52:34;;;;;;;7.45;1.58;;;16.00;99.90;;;;;;4938845;28;20050;-72
2023/09/21 10:55:00;;;;;;;7.10;1.70;;;16.20;99.90;;;;;;4903259;28;20043;-73
2023/09/21 10:57:28;;;;;;;7.15;1.58;;;16.50;99.90;;;;;;4952848;28;20051;-72
2023/09/21 10:59:57;;;;;;;7.82;1.77;;;16.80;99.90;;;;;;4921259;28;20517;-73
2023/09/21 11:02:23;;;;;;;7.00;1.50;;;16.90;99.90;;;;;;4948309;28;20051;-73
2023/09/21 11:04:52;;;;;;;7.65;1.60;;;17.00;99.90;;;;;;4921356;28;20054;-73
2023/09/21 11:07:21;;;;;;;5.18;1.30;;;17.10;99.90;;;;;;4950939;28;20055;-72
2023/09/21 11:09:48;;;;;;;5.63;1.40;;;17.10;99.90;;;;;;4921913;28;20047;-73
2023/09/21 11:12:14;;;;;;;4.78;1.20;;;17.00;99.90;;;;;;4944383;28;20054;-72
2023/09/21 11:14:44;;;;;;;6.13;1.50;;;17.00;99.90;;;;;;4921326;28;20051;-74
2023/09/21 11:17:16;;;;;;;6.32;1.60;;;16.90;99.90;;;;;;4940418;29;20102;-73
2023/09/21 11:19:45;;;;;;;7.55;1.60;;;17.00;99.90;;;;;;4889833;28;20067;-72
2023/09/21 11:22:15;;;;;;;6.97;1.40;;;16.80;99.90;;;;;;4945403;28;20055;-73
2023/09/21 11:24:42;;;;;;;5.28;1.30;;;16.80;99.90;;;;;;4923699;28;20109;-75
2023/09/21 11:27:10;;;;;;;5.93;1.42;;;16.70;99.90;;;;;;4944315;28;20585;-73
2023/09/21 11:29:41;;;;;;;4.95;1.13;;;16.60;99.90;;;;;;4910065;28;20058;-73
2023/09/21 11:32:08;;;;;;;5.25;1.20;;;16.60;99.90;;;;;;4944589;28;20051;-73
2023/09/21 11:34:36;;;;;;;3.72;1.02;;;16.70;99.90;;;;;;4909884;28;20525;-73
2023/09/21 11:37:05;;;;;;;6.43;1.38;;;16.70;99.90;;;;;;4946195;28;20422;-73
2023/09/21 11:39:32;;;;;;;4.97;1.17;;;16.80;99.90;;;;;;4906488;28;20102;-73
2023/09/21 11:41:58;;;;;;;4.18;0.95;;;16.90;99.90;;;;;;4945708;28;20059;-73
2023/09/21 11:44:28;;;;;;;5.60;1.00;;;17.00;99.90;;;;;;4922833;28;20073;-74
2023/09/21 11:46:57;;;;;;;4.15;1.10;;;17.00;99.90;;;;;;4946989;28;20055;-74
2023/09/21 11:49:40;;;;;;;5.20;0.98;;;17.00;99.90;;;;;;4917988;28;20051;-74
2023/09/21 11:52:09;;;;;;;5.35;1.10;;;17.00;99.90;;;;;;4945855;28;20039;-73
2023/09/21 11:54:38;;;;;;;4.03;0.95;;;17.00;99.90;;;;;;4893921;28;174340;-73
2023/09/21 11:57:09;;;;;;;4.60;0.98;;;17.00;99.90;;;;;;4961514;28;20059;-75
2023/09/21 11:59:40;;;;;;;4.40;1.00;;;16.90;99.90;;;;;;4922613;28;20050;-72
2023/09/21 12:02:09;;;;;;;6.15;1.20;;;16.80;99.90;;;;;;4947295;28;20055;-74
2023/09/21 12:04:38;;;;;;;3.28;0.80;;;16.60;99.90;;;;;;4924962;28;20228;-74
2023/09/21 12:07:09;;;;;;;3.47;0.98;;;16.40;99.90;;;;;;4942963;28;20058;-73
2023/09/21 12:09:36;;;;;;;4.65;1.10;;;16.40;99.90;;;;;;4905100;28;20557;-73
2023/09/21 12:12:05;;;;;;;3.05;0.75;;;16.40;99.90;;;;;;4943872;28;20051;-74
2023/09/21 12:14:33;;;;;;;3.60;1.00;;;16.40;99.90;;;;;;4897128;28;20040;-73
2023/09/21 12:17:05;;;;;;;3.80;0.90;;;16.40;99.90;;;;;;4945330;28;20062;-73
2023/09/21 12:19:32;;;;;;;4.63;0.90;;;16.30;99.90;;;;;;4922986;28;20043;-73
2023/09/21 12:21:59;;;;;;;3.10;0.80;;;16.20;99.90;;;;;;4947471;28;20063;-72
2023/09/21 12:24:26;;;;;;;3.28;0.80;;;16.10;99.90;;;;;;4919400;28;20740;-73
2023/09/21 12:26:53;;;;;;;4.43;0.80;;;16.20;99.90;;;;;;4950236;28;20039;-73
2023/09/21 12:29:19;;;;;;;4.30;1.00;;;16.20;99.90;;;;;;4924495;28;20050;-74
2023/09/21 12:31:45;;;;;;;3.72;0.90;;;16.30;99.90;;;;;;4946192;28;20114;-72
2023/09/21 12:34:15;;;;;;;5.03;0.90;;;16.30;99.90;;;;;;4908618;28;20046;-74
2023/09/21 12:36:48;;;;;;;4.03;0.82;;;16.40;99.90;;;;;;4952018;28;20055;-73
2023/09/21 12:39:15;;;;;;;4.40;0.98;;;16.60;99.90;;;;;;4889315;28;20045;-73
2023/09/21 12:41:43;;;;;;;4.32;0.98;;;16.60;99.90;;;;;;4951104;28;20066;-74
2023/09/21 12:44:10;;;;;;;3.53;0.70;;;16.60;99.90;;;;;;4911781;28;20043;-74
2023/09/21 12:46:39;;;;;;;4.47;0.90;;;16.60;99.90;;;;;;4951136;28;20066;-73
2023/09/21 12:49:05;;;;;;;3.75;0.98;;;16.70;99.90;;;;;;4902539;28;20059;-72